createdAt,value
2019-04-22T00:01:23.182Z,98345.31
2019-04-22T00:03:55.180Z,98351.50
2019-04-22T00:06:48.052Z,98337.77
2019-04-22T00:09:17.791Z,98332.48
2019-04-22T00:12:02.523Z,98337.69
2019-04-22T00:14:13.129Z,98335.25
2019-04-22T00:16:51.734Z,98334.05
2019-04-22T00:19:20.782Z,98329.70
2019-04-22T00:21:55.221Z,98323.09
2019-04-22T00:24:28.574Z,98325.69
2019-04-22T00:26:57.381Z,98319.33
2019-04-22T00:29:46.605Z,98326.56
2019-04-22T00:32:19.393Z,98328.30
2019-04-22T00:34:51.907Z,98325.66
2019-04-22T00:37:24.763Z,98318.65
2019-04-22T00:39:51.446Z,98325.47
2019-04-22T00:42:32.928Z,98323.31
2019-04-22T00:45:03.268Z,98317.52
2019-04-22T00:47:28.002Z,98314.55
2019-04-22T00:52:32.418Z,98318.27
2019-04-22T00:55:10.162Z,98310.19
2019-04-22T00:57:28.436Z,98307.08
2019-04-22T01:00:01.474Z,98308.47
2019-04-22T01:02:37.611Z,98299.70
2019-04-22T01:05:07.930Z,98311.63
2019-04-22T01:07:32.165Z,98299.23
2019-04-22T01:10:09.228Z,98297.19
2019-04-22T01:12:41.466Z,98289.07
2019-04-22T01:15:07.302Z,98295.99
2019-04-22T01:17:40.186Z,98288.48
2019-04-22T01:20:25.633Z,98295.30
2019-04-22T01:22:34.172Z,98294.34
2019-04-22T01:25:08.827Z,98291.61
2019-04-22T01:27:36.141Z,98285.33
2019-04-22T01:30:03.672Z,98291.16
2019-04-22T01:32:31.111Z,98292.94
2019-04-22T01:35:08.470Z,98287.08
2019-04-22T01:37:46.016Z,98281.59
2019-04-22T01:40:25.375Z,98284.00
2019-04-22T01:42:56.225Z,98274.47
2019-04-22T01:45:26.744Z,98269.70
2019-04-22T01:47:57.731Z,98271.14
2019-04-22T01:50:27.776Z,98264.48
2019-04-22T01:53:11.767Z,98260.47
2019-04-22T01:55:31.112Z,98258.20
2019-04-22T01:58:00.084Z,98266.04
2019-04-22T02:00:35.941Z,98266.59
2019-04-22T02:03:04.154Z,98260.29
2019-04-22T02:05:37.619Z,98257.16
2019-04-22T02:08:16.596Z,98257.66
2019-04-22T02:10:40.246Z,98259.48
2019-04-22T02:13:10.060Z,98262.20
2019-04-22T02:15:41.578Z,98250.77
2019-04-22T02:18:19.764Z,98247.80
2019-04-22T02:20:45.544Z,98246.63
2019-04-22T02:26:22.940Z,98251.25
2019-04-22T02:36:22.682Z,98236.38
2019-04-22T02:38:58.945Z,98234.53
2019-04-22T02:41:26.423Z,98229.55
2019-04-22T02:49:01.300Z,98232.83
2019-04-22T02:51:22.684Z,98230.03
2019-04-22T02:56:31.731Z,98225.45
2019-04-22T02:59:04.233Z,98212.67
2019-04-22T03:01:31.359Z,98217.84
2019-04-22T03:06:34.637Z,98211.89
2019-04-22T03:09:08.911Z,98210.20
2019-04-22T03:14:19.023Z,98211.38
2019-04-22T03:21:38.778Z,98191.83
2019-04-22T03:24:18.417Z,98187.93
2019-04-22T03:29:09.307Z,98186.11
2019-04-22T03:37:20.538Z,98187.66
2019-04-22T03:47:13.161Z,98184.20
2019-04-22T03:54:39.859Z,98175.35
2019-04-22T04:02:13.457Z,98168.91
2019-04-22T04:04:36.761Z,98168.44
2019-04-22T04:07:20.547Z,98167.41
2019-04-22T04:09:49.239Z,98166.94
2019-04-22T04:12:12.320Z,98160.86
2019-04-22T04:17:22.472Z,98157.09
2019-04-22T04:20:08.099Z,98149.05
2019-04-22T04:22:30.490Z,98140.11
2019-04-22T04:30:13.733Z,98129.62
2019-04-22T04:40:06.834Z,98131.84
2019-04-22T04:47:47.665Z,98121.97
2019-04-22T04:50:12.245Z,98120.48
2019-04-22T04:52:50.296Z,98123.12
2019-04-22T04:55:09.722Z,98121.28
2019-04-22T05:02:48.902Z,98114.50
2019-04-22T05:05:12.973Z,98114.73
2019-04-22T05:15:21.090Z,98118.33
2019-04-22T05:17:43.402Z,98115.45
2019-04-22T05:22:39.695Z,98112.48
2019-04-22T05:25:11.770Z,98108.08
2019-04-22T05:27:39.703Z,98102.42
2019-04-22T05:30:26.761Z,98107.33
2019-04-22T05:32:55.760Z,98103.15
2019-04-22T05:35:21.755Z,98105.42
2019-04-22T05:37:51.904Z,98103.62
2019-04-22T05:40:20.556Z,98104.71
2019-04-22T05:42:46.389Z,98107.53
2019-04-22T05:50:18.949Z,98103.27
2019-04-22T05:52:51.535Z,98099.47
2019-04-22T05:55:30.539Z,98103.00
2019-04-22T05:57:57.810Z,98096.40
2019-04-22T06:03:11.990Z,98090.69
2019-04-22T06:05:32.043Z,98088.97
2019-04-22T06:08:02.489Z,98071.27
2019-04-22T06:10:39.438Z,98069.48
2019-04-22T06:13:06.577Z,98061.83
2019-04-22T06:15:54.324Z,98052.79
2019-04-22T06:18:16.094Z,98045.88
2019-04-22T06:20:53.117Z,98043.59
2019-04-22T06:23:25.629Z,98045.68
2019-04-22T06:26:07.916Z,98054.84
2019-04-22T06:28:38.368Z,98057.77
2019-04-22T06:30:57.112Z,98057.27
2019-04-22T06:33:31.984Z,98058.88
2019-04-22T06:35:56.056Z,98061.46
2019-04-22T06:38:40.348Z,98063.00
2019-04-22T06:41:07.322Z,98050.72
2019-04-22T06:43:33.828Z,98056.78
2019-04-22T06:46:06.395Z,98055.72
2019-04-22T06:48:34.675Z,98046.80
2019-04-22T06:51:04.696Z,98047.61
2019-04-22T06:53:37.427Z,98045.23
2019-04-22T06:56:06.425Z,98050.20
2019-04-22T06:58:36.895Z,98037.36
2019-04-22T07:01:09.740Z,98043.67
2019-04-22T07:03:50.286Z,98041.86
2019-04-22T07:06:17.595Z,98034.67
2019-04-22T07:11:06.088Z,98036.53
2019-04-22T07:13:45.322Z,98030.93
2019-04-22T07:16:13.346Z,98031.78
2019-04-22T07:18:43.066Z,98026.30
2019-04-22T07:21:15.813Z,98023.53
2019-04-22T07:23:53.080Z,98017.06
2019-04-22T07:26:18.798Z,98012.59
2019-04-22T07:28:49.164Z,98012.08
2019-04-22T07:31:16.193Z,98007.25
2019-04-22T07:33:51.133Z,98008.23
2019-04-22T07:36:35.361Z,97998.03
2019-04-22T07:38:55.322Z,97998.84
2019-04-22T07:41:24.072Z,97996.20
2019-04-22T07:44:07.389Z,97997.64
2019-04-22T07:46:27.922Z,98004.80
2019-04-22T07:48:58.048Z,97996.51
2019-04-22T07:51:26.809Z,97989.37
2019-04-22T07:53:56.129Z,97987.67
2019-04-22T07:56:29.517Z,97984.20
2019-04-22T07:59:07.360Z,97981.90
2019-04-22T08:01:33.768Z,97990.58
2019-04-22T08:04:07.527Z,97987.16
2019-04-22T08:06:51.579Z,97986.86
2019-04-22T08:09:08.015Z,97977.08
2019-04-22T08:14:18.865Z,97969.64
2019-04-22T08:16:43.379Z,97966.81
2019-04-22T08:19:18.757Z,97967.64
2019-04-22T08:21:49.360Z,97955.23
2019-04-22T08:24:18.475Z,97952.67
2019-04-22T08:26:48.160Z,97948.84
2019-04-22T08:29:19.114Z,97949.85
2019-04-22T08:31:51.915Z,97944.06
2019-04-22T08:34:19.508Z,97934.32
2019-04-22T08:37:11.821Z,97938.46
2019-04-22T08:41:43.502Z,97929.83
2019-04-22T08:44:41.527Z,97921.73
2019-04-22T08:47:04.253Z,97917.83
2019-04-22T08:49:34.427Z,97921.30
2019-04-22T08:52:03.875Z,97915.88
2019-04-22T08:54:31.086Z,97912.31
2019-04-22T08:57:06.782Z,97914.08
2019-04-22T08:59:28.156Z,97911.63
2019-04-22T09:02:09.351Z,97901.70
2019-04-22T09:04:31.340Z,97894.88
2019-04-22T09:07:20.303Z,97887.30
2019-04-22T09:09:42.905Z,97889.37
2019-04-22T09:12:21.955Z,97887.66
2019-04-22T09:14:43.492Z,97877.44
2019-04-22T09:17:17.498Z,97878.00
2019-04-22T09:19:44.110Z,97869.58
2019-04-22T09:24:48.596Z,97857.49
2019-04-22T09:30:13.158Z,97856.16
2019-04-22T09:32:26.693Z,97852.85
2019-04-22T09:34:58.899Z,97839.11
2019-04-22T09:37:41.936Z,97833.14
2019-04-22T09:40:04.547Z,97832.69
2019-04-22T09:42:39.554Z,97807.70
2019-04-22T09:45:05.840Z,97807.70
2019-04-22T09:47:40.949Z,97812.22
2019-04-22T09:50:08.614Z,97797.97
2019-04-22T09:52:42.123Z,97801.05
2019-04-22T09:55:15.405Z,97806.87
2019-04-22T09:57:43.166Z,97806.87
2019-04-22T10:00:17.140Z,97797.55
2019-04-22T10:02:49.031Z,97793.13
2019-04-22T10:07:45.023Z,97805.00
2019-04-22T10:10:18.877Z,97782.84
2019-04-22T10:12:46.960Z,97777.19
2019-04-22T10:15:19.591Z,97777.09
2019-04-22T10:17:54.855Z,97777.09
2019-04-22T10:20:24.331Z,97751.57
2019-04-22T10:22:51.974Z,97767.59
2019-04-22T10:25:27.992Z,97767.59
2019-04-22T10:28:07.021Z,97755.81
2019-04-22T10:30:33.335Z,97756.86
2019-04-22T10:32:54.912Z,97739.97
2019-04-22T10:35:12.922Z,97739.97
2019-04-22T10:37:40.401Z,97749.75
2019-04-22T10:40:15.833Z,97738.75
2019-04-22T10:42:45.448Z,97730.63
2019-04-22T10:45:16.402Z,97734.56
2019-04-22T10:47:48.000Z,97717.44
2019-04-22T10:50:20.510Z,97717.44
2019-04-22T10:52:50.135Z,97719.21
2019-04-22T10:55:21.223Z,97700.67
2019-04-22T10:57:50.778Z,97700.67
2019-04-22T11:00:19.914Z,97705.28
2019-04-22T11:02:49.748Z,97700.91
2019-04-22T11:05:19.955Z,97694.20
2019-04-22T11:07:56.786Z,97688.89
2019-04-22T11:10:41.228Z,97681.22
2019-04-22T11:12:51.605Z,97670.02
2019-04-22T11:15:22.431Z,97670.02
2019-04-22T11:17:53.449Z,97670.38
2019-04-22T11:20:23.784Z,97672.59
2019-04-22T11:22:53.148Z,97672.59
2019-04-22T11:25:23.458Z,97663.52
2019-04-22T11:27:53.701Z,97665.97
2019-04-22T11:30:25.949Z,97659.26
2019-04-22T11:32:54.585Z,97659.26
2019-04-22T11:35:23.901Z,97663.00
2019-04-22T11:37:53.088Z,97658.71
2019-04-22T11:40:28.812Z,97659.42
2019-04-22T11:42:54.413Z,97654.01
2019-04-22T11:45:24.193Z,97642.58
2019-04-22T11:47:55.163Z,97642.58
2019-04-22T11:50:25.985Z,97632.28
2019-04-22T11:52:55.351Z,97629.05
2019-04-22T11:55:24.823Z,97629.05
2019-04-22T11:57:54.218Z,97623.19
2019-04-22T12:00:30.873Z,97631.59
2019-04-22T12:03:00.860Z,97610.86
2019-04-22T12:05:30.257Z,97610.86
2019-04-22T12:07:59.419Z,97599.76
2019-04-22T12:10:38.852Z,97614.53
2019-04-22T12:13:02.118Z,97613.07
2019-04-22T12:15:32.904Z,97613.07
2019-04-22T12:18:03.621Z,97599.82
2019-04-22T12:20:35.047Z,97603.86
2019-04-22T12:23:05.073Z,97595.19
2019-04-22T12:25:46.396Z,97582.77
2019-04-22T12:28:06.424Z,97582.77
2019-04-22T12:30:35.722Z,97576.87
2019-04-22T12:33:08.790Z,97573.95
2019-04-22T12:35:36.973Z,97573.95
2019-04-22T12:38:08.628Z,97558.68
2019-04-22T12:40:46.666Z,97560.19
2019-04-22T12:43:10.703Z,97561.87
2019-04-22T12:45:40.326Z,97562.04
2019-04-22T12:48:10.105Z,97558.59
2019-04-22T12:50:43.468Z,97543.60
2019-04-22T12:53:14.323Z,97543.60
2019-04-22T12:55:43.904Z,97537.83
2019-04-22T12:58:13.886Z,97533.95
2019-04-22T13:00:44.592Z,97539.91
2019-04-22T13:03:14.053Z,97528.34
2019-04-22T13:05:43.202Z,97512.71
2019-04-22T13:08:13.761Z,97519.23
2019-04-22T13:10:53.424Z,97507.09
2019-04-22T13:13:15.399Z,97506.27
2019-04-22T13:15:44.673Z,97506.17
2019-04-22T13:18:27.089Z,97501.48
2019-04-22T13:20:46.650Z,97499.17
2019-04-22T13:23:17.931Z,97491.47
2019-04-22T13:25:47.461Z,97484.80
2019-04-22T13:28:16.715Z,97492.67
2019-04-22T13:30:46.517Z,97484.90
2019-04-22T13:33:16.862Z,97489.81
2019-04-22T13:35:47.801Z,97481.89
2019-04-22T13:38:19.263Z,97470.62
2019-04-22T13:41:00.694Z,97472.63
2019-04-22T13:43:20.827Z,97474.97
2019-04-22T13:45:54.072Z,97469.68
2019-04-22T13:48:38.687Z,97469.41
2019-04-22T13:51:33.807Z,97468.53
2019-04-22T13:54:29.538Z,97462.75
2019-04-22T13:56:19.386Z,97461.16
2019-04-22T13:58:42.760Z,97457.63
2019-04-22T14:01:02.626Z,97453.97
2019-04-22T14:03:50.294Z,97446.13
2019-04-22T14:06:20.663Z,97442.02
2019-04-22T14:08:51.383Z,97446.25
2019-04-22T14:11:34.581Z,97438.33
2019-04-22T14:13:52.157Z,97440.63
2019-04-22T14:16:22.775Z,97431.39
2019-04-22T14:18:52.049Z,97427.58
2019-04-22T14:21:21.246Z,97428.00
2019-04-22T14:23:50.926Z,97426.98
2019-04-22T14:26:20.212Z,97419.36
2019-04-22T14:28:50.055Z,97419.90
2019-04-22T14:31:20.391Z,97420.25
2019-04-22T14:33:53.631Z,97415.84
2019-04-22T14:36:23.448Z,97410.56
2019-04-22T14:38:57.805Z,97409.77
2019-04-22T14:41:43.665Z,97409.77
2019-04-22T14:45:00.785Z,97403.00
2019-04-22T14:46:58.742Z,97396.15
2019-04-22T14:49:24.044Z,97388.02
2019-04-22T14:51:55.089Z,97388.01
2019-04-22T14:54:21.172Z,97386.97
2019-04-22T14:56:34.383Z,97383.98
2019-04-22T14:59:05.078Z,97388.42
2019-04-22T15:01:35.035Z,97365.88
2019-04-22T15:04:05.482Z,97365.88
2019-04-22T15:06:36.152Z,97372.11
2019-04-22T15:09:08.170Z,97379.24
2019-04-22T15:11:51.613Z,97370.58
2019-04-22T15:14:09.540Z,97372.31
2019-04-22T15:16:57.826Z,97370.98
2019-04-22T15:19:33.855Z,97370.78
2019-04-22T15:22:03.173Z,97366.69
2019-04-22T15:24:32.304Z,97355.94
2019-04-22T15:27:02.618Z,97351.14
2019-04-22T15:29:31.907Z,97344.23
2019-04-22T15:32:01.107Z,97339.68
2019-04-22T15:34:30.561Z,97346.27
2019-04-22T15:37:00.237Z,97339.30
2019-04-22T15:39:29.480Z,97334.43
2019-04-22T15:42:09.555Z,97335.13
2019-04-22T15:44:30.501Z,97328.29
2019-04-22T15:47:00.897Z,97325.52
2019-04-22T15:49:31.890Z,97325.52
2019-04-22T15:52:03.912Z,97317.79
2019-04-22T15:54:33.871Z,97312.56
2019-04-22T15:57:04.545Z,97320.55
2019-04-22T15:59:49.414Z,97311.23
2019-04-22T16:02:06.593Z,97310.63
2019-04-22T16:04:36.787Z,97307.26
2019-04-22T16:07:07.395Z,97315.95
2019-04-22T16:09:36.935Z,97307.48
2019-04-22T16:12:16.262Z,97311.16
2019-04-22T16:14:41.991Z,97306.05
2019-04-22T16:17:08.701Z,97301.69
2019-04-22T16:19:39.378Z,97304.13
2019-04-22T16:22:14.902Z,97296.63
2019-04-22T16:25:00.548Z,97296.38
2019-04-22T16:27:30.582Z,97296.38
2019-04-22T16:30:01.183Z,97295.91
2019-04-22T16:32:31.961Z,97284.25
2019-04-22T16:35:01.192Z,97284.25
2019-04-22T16:37:30.670Z,97288.53
2019-04-22T16:40:00.843Z,97279.81
2019-04-22T16:42:37.880Z,97282.19
2019-04-22T16:45:01.912Z,97275.66
2019-04-22T16:47:31.442Z,97275.66
2019-04-22T16:50:01.766Z,97276.42
2019-04-22T16:52:32.194Z,97270.52
2019-04-22T16:55:03.331Z,97275.27
2019-04-22T16:57:33.730Z,97269.84
2019-04-22T17:00:03.007Z,97269.84
2019-04-22T17:02:55.989Z,97258.53
2019-04-22T17:05:43.398Z,97266.45
2019-04-22T17:08:14.176Z,97263.98
2019-04-22T17:10:43.933Z,97263.34
2019-04-22T17:13:20.939Z,97256.12
2019-04-22T17:15:47.347Z,97256.12
2019-04-22T17:18:17.226Z,97268.16
2019-04-22T17:20:46.629Z,97268.16
2019-04-22T17:23:15.936Z,97266.67
2019-04-22T17:25:45.193Z,97266.67
2019-04-22T17:28:15.420Z,97269.11
2019-04-22T17:30:45.922Z,97269.90
2019-04-22T17:33:15.077Z,97267.26
2019-04-22T17:35:46.749Z,97276.49
2019-04-22T17:38:26.156Z,97276.49
2019-04-22T17:41:02.588Z,97267.16
2019-04-22T17:43:52.297Z,97267.16
2019-04-22T17:46:19.358Z,97256.50
2019-04-22T17:49:15.197Z,97265.43
2019-04-22T17:52:04.518Z,97270.33
2019-04-22T17:54:30.777Z,97274.99
2019-04-22T17:57:04.792Z,97263.83
2019-04-22T17:59:35.931Z,97272.28
2019-04-22T18:02:03.077Z,97272.28
2019-04-22T18:04:18.093Z,97275.59
2019-04-22T18:07:13.433Z,97275.59
2019-04-22T18:10:14.281Z,97269.36
2019-04-22T18:12:20.507Z,97269.62
2019-04-22T18:14:59.512Z,97271.92
2019-04-22T18:17:11.204Z,97273.01
2019-04-22T18:19:39.644Z,97271.05
2019-04-22T18:22:10.845Z,97269.50
2019-04-22T18:24:39.198Z,97268.89
2019-04-22T18:27:31.869Z,97266.24
2019-04-22T18:29:44.612Z,97279.56
2019-04-22T18:32:08.893Z,97276.52
2019-04-22T18:34:42.828Z,97279.08
2019-04-22T18:37:16.400Z,97273.44
2019-04-22T18:39:52.623Z,97279.20
2019-04-22T18:42:17.110Z,97278.26
2019-04-22T18:44:55.990Z,97279.78
2019-04-22T18:47:18.563Z,97271.34
2019-04-22T18:49:49.249Z,97279.27
2019-04-22T18:52:43.613Z,97278.07
2019-04-22T18:55:36.023Z,97273.18
2019-04-22T18:58:11.680Z,97275.45
2019-04-22T19:00:29.374Z,97282.49
2019-04-22T19:03:08.776Z,97283.02
2019-04-22T19:05:51.766Z,97283.23
2019-04-22T19:11:02.584Z,97277.02
2019-04-22T19:16:12.761Z,97272.00
2019-04-22T19:21:01.235Z,97266.55
2019-04-22T19:23:32.103Z,97264.21
2019-04-22T19:25:57.129Z,97275.23
2019-04-22T19:28:36.070Z,97264.11
2019-04-22T19:31:09.613Z,97265.00
2019-04-22T19:33:34.868Z,97263.27
2019-04-22T19:36:10.970Z,97263.05
2019-04-22T19:38:27.715Z,97268.45
2019-04-22T19:41:13.534Z,97265.58
2019-04-22T19:43:40.716Z,97266.73
2019-04-22T19:46:07.488Z,97266.64
2019-04-22T19:48:45.651Z,97270.73
2019-04-22T19:51:18.715Z,97263.89
2019-04-22T19:53:47.390Z,97269.30
2019-04-22T19:56:10.066Z,97264.05
2019-04-22T19:58:41.508Z,97276.00
2019-04-22T20:01:30.877Z,97266.17
2019-04-22T20:04:15.080Z,97265.37
2019-04-22T20:06:41.373Z,97255.52
2019-04-22T20:09:14.046Z,97258.67
2019-04-22T20:11:48.078Z,97258.58
2019-04-22T20:14:16.905Z,97256.52
2019-04-22T20:16:42.823Z,97252.49
2019-04-22T20:19:25.353Z,97251.63
2019-04-22T20:21:48.916Z,97255.09
2019-04-22T20:24:07.985Z,97254.01
2019-04-22T20:26:56.521Z,97252.67
2019-04-22T20:29:27.065Z,97245.42
2019-04-22T20:31:53.063Z,97241.33
2019-04-22T20:34:24.011Z,97245.94
2019-04-22T20:37:03.327Z,97239.27
2019-04-22T20:39:36.006Z,97249.87
2019-04-22T20:42:12.589Z,97245.67
2019-04-22T20:44:35.246Z,97250.94
2019-04-22T20:47:00.684Z,97240.53
2019-04-22T20:49:35.476Z,97241.03
2019-04-22T20:52:11.435Z,97239.49
2019-04-22T20:54:34.952Z,97241.86
2019-04-22T20:57:02.259Z,97235.56
2019-04-22T20:59:40.264Z,97233.47
2019-04-22T21:02:09.614Z,97228.59
2019-04-22T21:04:32.322Z,97231.52
2019-04-22T21:07:09.563Z,97228.11
2019-04-22T21:09:43.251Z,97217.80
2019-04-22T21:12:12.472Z,97217.80
2019-04-22T21:14:53.208Z,97219.18
2019-04-22T21:17:19.748Z,97220.48
2019-04-22T21:19:54.657Z,97212.13
2019-04-22T21:22:22.761Z,97219.11
2019-04-22T21:24:49.387Z,97217.70
2019-04-22T21:27:42.441Z,97210.23
2019-04-22T21:29:48.503Z,97209.95
2019-04-22T21:32:26.473Z,97209.05
2019-04-22T21:35:03.782Z,97208.65
2019-04-22T21:37:34.659Z,97209.95
2019-04-22T21:39:52.542Z,97209.33
2019-04-22T21:42:31.495Z,97207.66
2019-04-22T21:44:56.962Z,97197.27
2019-04-22T21:47:35.717Z,97200.05
2019-04-22T21:50:21.524Z,97196.47
2019-04-22T21:52:32.184Z,97200.38
2019-04-22T21:55:14.405Z,97191.12
2019-04-22T21:58:08.014Z,97196.89
2019-04-22T22:03:07.200Z,97188.59
2019-04-22T22:05:27.126Z,97186.37
2019-04-22T22:07:56.135Z,97177.91
2019-04-22T22:10:43.454Z,97174.84
2019-04-22T22:13:13.830Z,97165.23
2019-04-22T22:15:41.994Z,97162.78
2019-04-22T22:18:08.427Z,97159.65
2019-04-22T22:20:47.458Z,97160.08
2019-04-22T22:23:21.854Z,97162.71
2019-04-22T22:25:43.710Z,97164.81
2019-04-22T22:28:33.384Z,97166.70
2019-04-22T22:33:17.014Z,97160.42
2019-04-22T22:35:45.797Z,97153.09
2019-04-22T22:38:19.481Z,97151.77
2019-04-22T22:40:34.113Z,97152.53
2019-04-22T22:43:15.931Z,97155.92
2019-04-22T22:45:39.267Z,97149.14
2019-04-22T22:48:30.154Z,97148.65
2019-04-22T22:50:53.421Z,97156.86
2019-04-22T22:53:36.976Z,97157.27
2019-04-22T22:55:57.990Z,97146.06
2019-04-22T22:58:28.021Z,97155.31
2019-04-22T23:00:56.188Z,97153.36
2019-04-22T23:03:45.966Z,97148.98
2019-04-22T23:06:03.621Z,97147.30
2019-04-22T23:08:34.173Z,97145.98
2019-04-22T23:11:05.597Z,97135.98
2019-04-22T23:13:39.817Z,97134.09
2019-04-22T23:15:58.350Z,97128.20
2019-04-22T23:18:16.205Z,97134.45
2019-04-22T23:20:47.847Z,97121.58
2019-04-22T23:23:38.189Z,97117.38
2019-04-22T23:26:06.123Z,97115.36
2019-04-22T23:28:50.965Z,97119.03
2019-04-22T23:31:30.842Z,97113.11
2019-04-22T23:34:06.681Z,97109.50
2019-04-22T23:36:59.029Z,97112.30
2019-04-22T23:39:40.326Z,97106.38
2019-04-22T23:42:04.811Z,97107.27
2019-04-22T23:44:39.823Z,97104.63
2019-04-22T23:47:15.593Z,97109.98
2019-04-22T23:49:53.487Z,97102.41
2019-04-22T23:52:32.030Z,97101.59
2019-04-22T23:55:03.318Z,97095.08
2019-04-22T23:57:34.824Z,97095.58
